Notice: Undefined index: language in /home/spanairv/public_html/vam/index.php on line 25
Spanair Virtual

 INFORMACIÓN METAR y TAF
METAR FOR LEMH
ADDS - METARS form results

(2023 UTC 26 June 2019)
Data provider http://aviationweather.gov/metar/data/
 
METAR text: LEMH 262000Z 06006KT CAVOK 24/20 Q1020
Conditions at: LEMH (MAHON/MENORCA IS, ES) observed 2000 UTC 26 June 2019
Temperature: 24.0°C (75°F)
Dewpoint: 20.0°C (68°F) [RH = 78%]
Pressure (altimeter): 30.12 inches Hg (1020.0 mb)
Winds: from the ENE (60 degrees) at 7 MPH (6 knots; 3.1 m/s)
Visibility: 6 or more miles (10+ km)
Ceiling: ceiling and visibility are OK
Clouds: unknown
Weather: no significant weather observed at this time

METAR text: LEMH 261930Z 06007KT CAVOK 24/20 Q1020
Conditions at: LEMH (MAHON/MENORCA IS, ES) observed 1930 UTC 26 June 2019
Temperature: 24.0°C (75°F)
Dewpoint: 20.0°C (68°F) [RH = 78%]
Pressure (altimeter): 30.12 inches Hg (1020.0 mb)
Winds: from the ENE (60 degrees) at 8 MPH (7 knots; 3.6 m/s)
Visibility: 6 or more miles (10+ km)
Ceiling: ceiling and visibility are OK
Clouds: unknown
Weather: no significant weather observed at this time

Forecast for: LEMH (MAHON/MENORCA IS, ES)
Text: TAF LEMH 261400Z 2615/2715 10012KT CAVOK TX30/2712Z TN20/2705Z
Forecast period: 1500 to 2000 UTC 26 June 2019
Forecast type: FROM: standard forecast or significant change
Winds: from the E (100 degrees) at 14 MPH (12 knots; 6.2 m/s)
Visibility: 6 or more miles 10+ km)
Ceiling: unknown
Clouds: missing
Weather: no significant weather forecast for this period
Text: BECMG 2620/2622 04008KT
Forecast period: 2000 UTC 26 June 2019 to 1500 UTC 27 June 2019
Forecast type: BECOMING: Conditions expected to become as follows by 2200 UTC 26 June 2019
Winds: from the NE (40 degrees) at 9 MPH (8 knots; 4.1 m/s)
Visibility: 6 or more miles 10+ km)
Ceiling: unknown
Clouds: missing
Weather: no significant weather forecast for this period

 MAPA DE AEROPUERTO

 INFORMACIÓN DE PISTA
Pista 01L Longitud 7710 ft Ancho 148 ft
Elevación 277 ft Umbral desplazado 0 ft Rumbo de pista 9
Pista 19R Longitud 7710 ft Ancho 148 ft
Elevación 298 ft Umbral desplazado 0 ft Rumbo de pista 189
Pista 01R Longitud 6890 ft Ancho 148 ft
Elevación 272 ft Umbral desplazado 0 ft Rumbo de pista 9
Pista 19L Longitud 6890 ft Ancho 148 ft
Elevación 298 ft Umbral desplazado 0 ft Rumbo de pista 189

 FRECUANCIAS DEL AEROPUERTO
Tipo APP Nombre APP Frecuencia 119.65 MHZ
Tipo ATIS Nombre ATIS Frecuencia 112.6 MHZ
Tipo GND Nombre GND Frecuencia 121.75 MHZ
Tipo TWR Nombre TWR Frecuencia 118.2 MHZ

 RADIO AYUDAS DEL AEROPUERTO
Tipo VOR-DME Nombre Menorca Frecuencia 112600 KHZ
Tipo NDB Nombre Menorca Frecuencia 344 KHZ





VAM [v2.6.2]

Normativa | Spanair Virtual © 2017 | Customized by JZ © 2017 for Spanair Virtual